sensor_id;sensor_type;location;lat;lon;timestamp;temperature;humidity
40636;DHT22;26642;55.766;37.828;2023-12-20T00:01:50;9.80;83.60
40636;DHT22;26642;55.766;37.828;2023-12-20T00:04:16;9.80;83.60
40636;DHT22;26642;55.766;37.828;2023-12-20T00:06:42;9.70;83.40
40636;DHT22;26642;55.766;37.828;2023-12-20T00:09:08;9.80;83.40
40636;DHT22;26642;55.766;37.828;2023-12-20T00:11:34;9.70;83.40
40636;DHT22;26642;55.766;37.828;2023-12-20T00:14:00;9.70;83.20
40636;DHT22;26642;55.766;37.828;2023-12-20T00:16:26;9.70;83.20
40636;DHT22;26642;55.766;37.828;2023-12-20T00:18:52;9.70;83.30
40636;DHT22;26642;55.766;37.828;2023-12-20T00:21:18;9.70;83.40
40636;DHT22;26642;55.766;37.828;2023-12-20T00:23:44;9.70;83.30
40636;DHT22;26642;55.766;37.828;2023-12-20T00:26:10;9.70;83.30
40636;DHT22;26642;55.766;37.828;2023-12-20T00:28:36;9.70;83.30
40636;DHT22;26642;55.766;37.828;2023-12-20T00:31:02;9.60;83.20
40636;DHT22;26642;55.766;37.828;2023-12-20T00:33:28;9.60;83.30
40636;DHT22;26642;55.766;37.828;2023-12-20T00:35:54;9.60;83.20
40636;DHT22;26642;55.766;37.828;2023-12-20T00:38:20;9.60;83.30
40636;DHT22;26642;55.766;37.828;2023-12-20T00:40:46;9.60;83.30
40636;DHT22;26642;55.766;37.828;2023-12-20T00:43:12;9.60;83.30
40636;DHT22;26642;55.766;37.828;2023-12-20T00:45:38;9.60;83.30
40636;DHT22;26642;55.766;37.828;2023-12-20T00:48:05;9.60;83.30
40636;DHT22;26642;55.766;37.828;2023-12-20T00:50:31;9.60;83.80
40636;DHT22;26642;55.766;37.828;2023-12-20T00:52:57;9.60;83.30
40636;DHT22;26642;55.766;37.828;2023-12-20T00:55:23;9.50;83.30
40636;DHT22;26642;55.766;37.828;2023-12-20T00:57:49;9.60;83.30
40636;DHT22;26642;55.766;37.828;2023-12-20T01:00:15;9.60;83.20
40636;DHT22;26642;55.766;37.828;2023-12-20T01:02:41;9.60;83.20
40636;DHT22;26642;55.766;37.828;2023-12-20T01:05:07;9.50;83.00
40636;DHT22;26642;55.766;37.828;2023-12-20T01:07:35;9.50;83.00
40636;DHT22;26642;55.766;37.828;2023-12-20T01:10:01;9.50;82.90
40636;DHT22;26642;55.766;37.828;2023-12-20T01:12:27;9.50;83.00
40636;DHT22;26642;55.766;37.828;2023-12-20T01:14:53;9.50;83.10
40636;DHT22;26642;55.766;37.828;2023-12-20T01:17:19;9.50;83.00
40636;DHT22;26642;55.766;37.828;2023-12-20T01:19:45;9.50;83.00
40636;DHT22;26642;55.766;37.828;2023-12-20T01:22:11;9.50;83.00
40636;DHT22;26642;55.766;37.828;2023-12-20T01:24:37;9.50;83.10
40636;DHT22;26642;55.766;37.828;2023-12-20T01:27:03;9.50;83.20
40636;DHT22;26642;55.766;37.828;2023-12-20T01:29:29;9.50;83.10
40636;DHT22;26642;55.766;37.828;2023-12-20T01:31:55;9.50;83.20
40636;DHT22;26642;55.766;37.828;2023-12-20T01:34:20;9.50;83.30
40636;DHT22;26642;55.766;37.828;2023-12-20T01:36:46;9.50;83.40
40636;DHT22;26642;55.766;37.828;2023-12-20T01:39:12;9.50;83.20
40636;DHT22;26642;55.766;37.828;2023-12-20T01:41:38;9.50;83.30
40636;DHT22;26642;55.766;37.828;2023-12-20T01:44:04;9.50;83.20
40636;DHT22;26642;55.766;37.828;2023-12-20T01:46:30;9.50;83.20
40636;DHT22;26642;55.766;37.828;2023-12-20T01:48:57;9.50;83.20
40636;DHT22;26642;55.766;37.828;2023-12-20T01:51:23;9.50;83.20
40636;DHT22;26642;55.766;37.828;2023-12-20T01:53:49;9.50;83.10
40636;DHT22;26642;55.766;37.828;2023-12-20T01:56:16;9.50;83.00
40636;DHT22;26642;55.766;37.828;2023-12-20T01:58:46;9.50;83.00
40636;DHT22;26642;55.766;37.828;2023-12-20T02:01:13;9.50;83.00
40636;DHT22;26642;55.766;37.828;2023-12-20T02:03:41;9.40;82.80
40636;DHT22;26642;55.766;37.828;2023-12-20T02:06:08;9.40;82.70
40636;DHT22;26642;55.766;37.828;2023-12-20T02:08:34;9.40;82.80
40636;DHT22;26642;55.766;37.828;2023-12-20T02:11:00;9.40;82.80
40636;DHT22;26642;55.766;37.828;2023-12-20T02:13:27;9.40;82.80
40636;DHT22;26642;55.766;37.828;2023-12-20T02:15:54;9.40;82.70
40636;DHT22;26642;55.766;37.828;2023-12-20T02:18:20;9.40;82.90
40636;DHT22;26642;55.766;37.828;2023-12-20T02:20:46;9.40;82.90
40636;DHT22;26642;55.766;37.828;2023-12-20T02:23:12;9.40;82.80
40636;DHT22;26642;55.766;37.828;2023-12-20T02:25:38;9.40;82.70
40636;DHT22;26642;55.766;37.828;2023-12-20T02:28:05;9.40;82.60
40636;DHT22;26642;55.766;37.828;2023-12-20T02:30:32;9.40;82.80
40636;DHT22;26642;55.766;37.828;2023-12-20T02:32:59;9.40;82.80
40636;DHT22;26642;55.766;37.828;2023-12-20T02:35:26;9.40;82.70
40636;DHT22;26642;55.766;37.828;2023-12-20T02:37:52;9.40;82.60
40636;DHT22;26642;55.766;37.828;2023-12-20T02:40:18;9.40;82.60
40636;DHT22;26642;55.766;37.828;2023-12-20T02:42:44;9.40;82.60
40636;DHT22;26642;55.766;37.828;2023-12-20T02:45:10;9.40;82.40
40636;DHT22;26642;55.766;37.828;2023-12-20T02:47:36;9.40;82.40
40636;DHT22;26642;55.766;37.828;2023-12-20T02:50:02;9.40;82.40
40636;DHT22;26642;55.766;37.828;2023-12-20T02:52:29;9.40;82.40
40636;DHT22;26642;55.766;37.828;2023-12-20T02:54:55;9.30;82.30
40636;DHT22;26642;55.766;37.828;2023-12-20T02:57:21;9.40;82.40
40636;DHT22;26642;55.766;37.828;2023-12-20T02:59:47;9.40;82.30
40636;DHT22;26642;55.766;37.828;2023-12-20T03:02:13;9.40;82.40
40636;DHT22;26642;55.766;37.828;2023-12-20T03:04:39;9.40;82.20
40636;DHT22;26642;55.766;37.828;2023-12-20T03:07:04;9.40;82.20
40636;DHT22;26642;55.766;37.828;2023-12-20T03:09:30;9.30;82.00
40636;DHT22;26642;55.766;37.828;2023-12-20T03:11:56;9.30;82.10
40636;DHT22;26642;55.766;37.828;2023-12-20T03:14:22;9.30;82.10
40636;DHT22;26642;55.766;37.828;2023-12-20T03:16:51;9.30;82.00
40636;DHT22;26642;55.766;37.828;2023-12-20T03:19:18;9.30;82.10
40636;DHT22;26642;55.766;37.828;2023-12-20T03:21:47;9.30;82.00
40636;DHT22;26642;55.766;37.828;2023-12-20T03:24:13;9.30;81.80
40636;DHT22;26642;55.766;37.828;2023-12-20T03:26:38;9.30;81.80
40636;DHT22;26642;55.766;37.828;2023-12-20T03:29:04;9.30;81.60
40636;DHT22;26642;55.766;37.828;2023-12-20T03:31:30;9.30;81.60
40636;DHT22;26642;55.766;37.828;2023-12-20T03:33:56;9.30;81.60
40636;DHT22;26642;55.766;37.828;2023-12-20T03:36:22;9.30;81.50
40636;DHT22;26642;55.766;37.828;2023-12-20T03:38:48;9.40;81.50
40636;DHT22;26642;55.766;37.828;2023-12-20T03:41:15;9.30;81.60
40636;DHT22;26642;55.766;37.828;2023-12-20T03:43:41;9.40;81.60
40636;DHT22;26642;55.766;37.828;2023-12-20T03:46:08;9.30;81.60
40636;DHT22;26642;55.766;37.828;2023-12-20T03:48:34;9.30;81.50
40636;DHT22;26642;55.766;37.828;2023-12-20T03:51:01;9.40;81.50
40636;DHT22;26642;55.766;37.828;2023-12-20T03:53:27;9.30;81.50
40636;DHT22;26642;55.766;37.828;2023-12-20T03:55:53;9.30;81.50
40636;DHT22;26642;55.766;37.828;2023-12-20T03:58:19;9.30;81.60
40636;DHT22;26642;55.766;37.828;2023-12-20T04:00:45;9.30;82.20
40636;DHT22;26642;55.766;37.828;2023-12-20T04:03:11;9.30;81.60
40636;DHT22;26642;55.766;37.828;2023-12-20T04:05:40;9.30;82.10
40636;DHT22;26642;55.766;37.828;2023-12-20T04:08:07;9.30;82.00
40636;DHT22;26642;55.766;37.828;2023-12-20T04:10:34;9.30;82.10
40636;DHT22;26642;55.766;37.828;2023-12-20T04:13:00;9.30;82.20
40636;DHT22;26642;55.766;37.828;2023-12-20T04:15:25;9.30;82.40
40636;DHT22;26642;55.766;37.828;2023-12-20T04:17:51;9.30;82.40
40636;DHT22;26642;55.766;37.828;2023-12-20T04:20:18;9.30;82.50
40636;DHT22;26642;55.766;37.828;2023-12-20T04:22:44;9.20;82.50
40636;DHT22;26642;55.766;37.828;2023-12-20T04:25:10;9.30;82.60
40636;DHT22;26642;55.766;37.828;2023-12-20T04:27:36;9.20;82.60
40636;DHT22;26642;55.766;37.828;2023-12-20T04:30:02;9.30;82.60
40636;DHT22;26642;55.766;37.828;2023-12-20T04:32:29;9.30;82.60
40636;DHT22;26642;55.766;37.828;2023-12-20T04:34:55;9.30;82.60
40636;DHT22;26642;55.766;37.828;2023-12-20T04:37:21;9.20;82.70
40636;DHT22;26642;55.766;37.828;2023-12-20T04:39:47;9.30;82.80
40636;DHT22;26642;55.766;37.828;2023-12-20T04:42:13;9.30;82.70
40636;DHT22;26642;55.766;37.828;2023-12-20T04:44:38;9.30;82.80
40636;DHT22;26642;55.766;37.828;2023-12-20T04:47:04;9.30;83.00
40636;DHT22;26642;55.766;37.828;2023-12-20T04:49:30;9.30;83.00
40636;DHT22;26642;55.766;37.828;2023-12-20T04:51:56;9.30;83.00
40636;DHT22;26642;55.766;37.828;2023-12-20T04:54:22;9.20;82.90
40636;DHT22;26642;55.766;37.828;2023-12-20T04:56:49;9.30;83.20
40636;DHT22;26642;55.766;37.828;2023-12-20T04:59:15;9.30;83.30
40636;DHT22;26642;55.766;37.828;2023-12-20T05:01:41;9.30;83.20
40636;DHT22;26642;55.766;37.828;2023-12-20T05:04:07;9.30;83.20
40636;DHT22;26642;55.766;37.828;2023-12-20T05:06:33;9.30;83.20
40636;DHT22;26642;55.766;37.828;2023-12-20T05:08:59;9.30;83.70
40636;DHT22;26642;55.766;37.828;2023-12-20T05:11:25;9.30;84.30
40636;DHT22;26642;55.766;37.828;2023-12-20T05:13:51;9.30;84.80
40636;DHT22;26642;55.766;37.828;2023-12-20T05:16:17;9.30;84.70
40636;DHT22;26642;55.766;37.828;2023-12-20T05:18:44;9.30;84.60
40636;DHT22;26642;55.766;37.828;2023-12-20T05:21:10;9.30;84.30
40636;DHT22;26642;55.766;37.828;2023-12-20T05:23:37;9.30;84.20
40636;DHT22;26642;55.766;37.828;2023-12-20T05:26:03;9.30;84.10
40636;DHT22;26642;55.766;37.828;2023-12-20T05:28:29;9.30;83.70
40636;DHT22;26642;55.766;37.828;2023-12-20T05:30:55;9.30;83.70
40636;DHT22;26642;55.766;37.828;2023-12-20T05:33:21;9.30;83.60
40636;DHT22;26642;55.766;37.828;2023-12-20T05:35:47;9.30;83.40
40636;DHT22;26642;55.766;37.828;2023-12-20T05:38:13;9.30;83.30
40636;DHT22;26642;55.766;37.828;2023-12-20T05:40:39;9.30;83.30
40636;DHT22;26642;55.766;37.828;2023-12-20T05:43:05;9.30;83.20
40636;DHT22;26642;55.766;37.828;2023-12-20T05:45:31;9.30;83.10
40636;DHT22;26642;55.766;37.828;2023-12-20T05:47:57;9.30;83.20
40636;DHT22;26642;55.766;37.828;2023-12-20T05:50:24;9.30;83.10
40636;DHT22;26642;55.766;37.828;2023-12-20T05:52:50;9.30;83.00
40636;DHT22;26642;55.766;37.828;2023-12-20T05:55:16;9.30;82.90
40636;DHT22;26642;55.766;37.828;2023-12-20T05:57:42;9.30;83.00
40636;DHT22;26642;55.766;37.828;2023-12-20T06:00:09;9.30;83.10
40636;DHT22;26642;55.766;37.828;2023-12-20T06:02:39;9.30;83.20
40636;DHT22;26642;55.766;37.828;2023-12-20T06:05:06;9.30;83.20
40636;DHT22;26642;55.766;37.828;2023-12-20T06:07:32;9.30;83.20
40636;DHT22;26642;55.766;37.828;2023-12-20T06:09:58;9.30;83.10
40636;DHT22;26642;55.766;37.828;2023-12-20T06:12:24;9.30;83.00
40636;DHT22;26642;55.766;37.828;2023-12-20T06:14:52;9.30;82.90
40636;DHT22;26642;55.766;37.828;2023-12-20T06:17:18;9.30;82.80
40636;DHT22;26642;55.766;37.828;2023-12-20T06:19:44;9.30;82.70
40636;DHT22;26642;55.766;37.828;2023-12-20T06:22:14;9.30;82.80
40636;DHT22;26642;55.766;37.828;2023-12-20T06:24:40;9.30;82.80
40636;DHT22;26642;55.766;37.828;2023-12-20T06:27:06;9.30;82.80
40636;DHT22;26642;55.766;37.828;2023-12-20T06:29:32;9.30;82.80
40636;DHT22;26642;55.766;37.828;2023-12-20T06:32:00;9.30;82.70
40636;DHT22;26642;55.766;37.828;2023-12-20T06:34:26;9.30;82.70
40636;DHT22;26642;55.766;37.828;2023-12-20T06:36:52;9.30;82.70
40636;DHT22;26642;55.766;37.828;2023-12-20T06:39:18;9.30;82.80
40636;DHT22;26642;55.766;37.828;2023-12-20T06:41:44;9.30;82.70
40636;DHT22;26642;55.766;37.828;2023-12-20T06:44:10;9.30;82.70
40636;DHT22;26642;55.766;37.828;2023-12-20T06:46:36;9.30;82.70
40636;DHT22;26642;55.766;37.828;2023-12-20T06:49:02;9.30;82.90
40636;DHT22;26642;55.766;37.828;2023-12-20T06:51:28;9.30;82.80
40636;DHT22;26642;55.766;37.828;2023-12-20T06:53:56;9.40;82.80
40636;DHT22;26642;55.766;37.828;2023-12-20T06:56:22;9.30;82.60
40636;DHT22;26642;55.766;37.828;2023-12-20T06:58:48;9.30;82.60
40636;DHT22;26642;55.766;37.828;2023-12-20T07:01:14;9.40;82.60
40636;DHT22;26642;55.766;37.828;2023-12-20T07:03:41;9.30;82.40
40636;DHT22;26642;55.766;37.828;2023-12-20T07:06:07;9.30;82.30
40636;DHT22;26642;55.766;37.828;2023-12-20T07:08:33;9.40;82.30
40636;DHT22;26642;55.766;37.828;2023-12-20T07:10:59;9.40;82.20
40636;DHT22;26642;55.766;37.828;2023-12-20T07:13:25;9.40;82.10
40636;DHT22;26642;55.766;37.828;2023-12-20T07:15:51;9.40;82.10
40636;DHT22;26642;55.766;37.828;2023-12-20T07:18:17;9.40;82.00
40636;DHT22;26642;55.766;37.828;2023-12-20T07:20:43;9.40;81.90
40636;DHT22;26642;55.766;37.828;2023-12-20T07:23:09;9.40;82.00
40636;DHT22;26642;55.766;37.828;2023-12-20T07:25:35;9.40;82.00
40636;DHT22;26642;55.766;37.828;2023-12-20T07:28:01;9.40;81.90
40636;DHT22;26642;55.766;37.828;2023-12-20T07:30:28;9.40;81.90
40636;DHT22;26642;55.766;37.828;2023-12-20T07:32:54;9.40;82.00
40636;DHT22;26642;55.766;37.828;2023-12-20T07:35:20;9.40;82.00
40636;DHT22;26642;55.766;37.828;2023-12-20T07:37:46;9.40;82.10
40636;DHT22;26642;55.766;37.828;2023-12-20T07:40:12;9.40;82.10
40636;DHT22;26642;55.766;37.828;2023-12-20T07:42:38;9.40;82.10
40636;DHT22;26642;55.766;37.828;2023-12-20T07:45:04;9.50;82.20
40636;DHT22;26642;55.766;37.828;2023-12-20T07:47:31;9.40;82.00
40636;DHT22;26642;55.766;37.828;2023-12-20T07:49:57;9.40;82.10
40636;DHT22;26642;55.766;37.828;2023-12-20T07:52:23;9.50;82.10
40636;DHT22;26642;55.766;37.828;2023-12-20T07:54:49;9.50;82.10
40636;DHT22;26642;55.766;37.828;2023-12-20T07:57:15;9.50;82.10
40636;DHT22;26642;55.766;37.828;2023-12-20T07:59:41;9.50;82.00
40636;DHT22;26642;55.766;37.828;2023-12-20T08:02:07;9.50;82.10
40636;DHT22;26642;55.766;37.828;2023-12-20T08:04:33;9.50;82.20
40636;DHT22;26642;55.766;37.828;2023-12-20T08:06:59;9.50;82.10
40636;DHT22;26642;55.766;37.828;2023-12-20T08:09:26;9.50;82.00
40636;DHT22;26642;55.766;37.828;2023-12-20T08:11:52;9.50;82.20
40636;DHT22;26642;55.766;37.828;2023-12-20T08:14:18;9.50;82.40
40636;DHT22;26642;55.766;37.828;2023-12-20T08:16:44;9.50;82.40
40636;DHT22;26642;55.766;37.828;2023-12-20T08:19:10;9.50;82.30
40636;DHT22;26642;55.766;37.828;2023-12-20T08:21:36;9.50;82.40
40636;DHT22;26642;55.766;37.828;2023-12-20T08:24:02;9.50;82.20
40636;DHT22;26642;55.766;37.828;2023-12-20T08:26:28;9.60;82.10
40636;DHT22;26642;55.766;37.828;2023-12-20T08:28:54;9.50;82.00
40636;DHT22;26642;55.766;37.828;2023-12-20T08:31:20;9.60;82.00
40636;DHT22;26642;55.766;37.828;2023-12-20T08:33:48;9.60;81.90
40636;DHT22;26642;55.766;37.828;2023-12-20T08:36:14;9.60;81.90
40636;DHT22;26642;55.766;37.828;2023-12-20T08:38:40;9.60;81.80
40636;DHT22;26642;55.766;37.828;2023-12-20T08:41:07;9.60;81.80
40636;DHT22;26642;55.766;37.828;2023-12-20T08:43:34;9.60;81.80
40636;DHT22;26642;55.766;37.828;2023-12-20T08:46:01;9.60;81.70
40636;DHT22;26642;55.766;37.828;2023-12-20T08:48:28;9.60;81.80
40636;DHT22;26642;55.766;37.828;2023-12-20T08:50:54;9.60;81.80
40636;DHT22;26642;55.766;37.828;2023-12-20T08:53:20;9.60;81.90
40636;DHT22;26642;55.766;37.828;2023-12-20T08:55:47;9.70;81.90
40636;DHT22;26642;55.766;37.828;2023-12-20T08:58:13;9.70;81.90
40636;DHT22;26642;55.766;37.828;2023-12-20T09:00:40;9.60;81.70
40636;DHT22;26642;55.766;37.828;2023-12-20T09:03:06;9.70;81.70
40636;DHT22;26642;55.766;37.828;2023-12-20T09:05:32;9.70;81.80
40636;DHT22;26642;55.766;37.828;2023-12-20T09:07:58;9.70;81.80
40636;DHT22;26642;55.766;37.828;2023-12-20T09:10:24;9.70;81.70
40636;DHT22;26642;55.766;37.828;2023-12-20T09:12:51;9.70;81.70
40636;DHT22;26642;55.766;37.828;2023-12-20T09:15:17;9.70;81.70
40636;DHT22;26642;55.766;37.828;2023-12-20T09:17:43;9.70;81.90
40636;DHT22;26642;55.766;37.828;2023-12-20T09:20:09;9.70;81.90
40636;DHT22;26642;55.766;37.828;2023-12-20T09:22:35;9.70;81.80
40636;DHT22;26642;55.766;37.828;2023-12-20T09:25:04;9.70;82.40
40636;DHT22;26642;55.766;37.828;2023-12-20T09:27:30;9.70;81.70
40636;DHT22;26642;55.766;37.828;2023-12-20T09:29:56;9.70;81.80
40636;DHT22;26642;55.766;37.828;2023-12-20T09:32:22;9.70;81.80
40636;DHT22;26642;55.766;37.828;2023-12-20T09:34:48;9.70;81.90
40636;DHT22;26642;55.766;37.828;2023-12-20T09:37:14;9.80;81.90
40636;DHT22;26642;55.766;37.828;2023-12-20T09:39:40;9.70;81.80
40636;DHT22;26642;55.766;37.828;2023-12-20T09:42:07;9.70;81.70
40636;DHT22;26642;55.766;37.828;2023-12-20T09:44:33;9.70;81.70
40636;DHT22;26642;55.766;37.828;2023-12-20T09:47:03;9.70;81.70
40636;DHT22;26642;55.766;37.828;2023-12-20T09:49:30;9.80;81.70
40636;DHT22;26642;55.766;37.828;2023-12-20T09:51:56;9.70;81.60
40636;DHT22;26642;55.766;37.828;2023-12-20T09:54:23;9.80;81.70
40636;DHT22;26642;55.766;37.828;2023-12-20T09:56:50;9.70;81.60
40636;DHT22;26642;55.766;37.828;2023-12-20T09:59:16;9.80;81.70
40636;DHT22;26642;55.766;37.828;2023-12-20T10:01:43;9.70;81.60
40636;DHT22;26642;55.766;37.828;2023-12-20T10:04:10;9.80;81.50
40636;DHT22;26642;55.766;37.828;2023-12-20T10:06:46;9.80;81.70
40636;DHT22;26642;55.766;37.828;2023-12-20T10:09:13;9.70;81.80
40636;DHT22;26642;55.766;37.828;2023-12-20T10:11:40;9.80;81.80
40636;DHT22;26642;55.766;37.828;2023-12-20T10:14:07;9.70;81.70
40636;DHT22;26642;55.766;37.828;2023-12-20T10:16:33;9.70;81.70
40636;DHT22;26642;55.766;37.828;2023-12-20T10:19:00;9.70;81.70
40636;DHT22;26642;55.766;37.828;2023-12-20T10:21:29;9.80;81.90
40636;DHT22;26642;55.766;37.828;2023-12-20T10:23:56;9.80;82.00
40636;DHT22;26642;55.766;37.828;2023-12-20T10:26:24;9.80;82.10
40636;DHT22;26642;55.766;37.828;2023-12-20T10:28:53;9.80;82.20
40636;DHT22;26642;55.766;37.828;2023-12-20T10:31:32;9.80;82.10
40636;DHT22;26642;55.766;37.828;2023-12-20T10:34:00;9.80;82.10
40636;DHT22;26642;55.766;37.828;2023-12-20T10:36:31;9.70;82.00
40636;DHT22;26642;55.766;37.828;2023-12-20T10:38:57;9.70;82.00
40636;DHT22;26642;55.766;37.828;2023-12-20T10:41:33;9.70;82.10
40636;DHT22;26642;55.766;37.828;2023-12-20T10:44:02;9.70;82.20
40636;DHT22;26642;55.766;37.828;2023-12-20T10:46:30;9.70;82.30
40636;DHT22;26642;55.766;37.828;2023-12-20T10:48:56;9.70;82.20
40636;DHT22;26642;55.766;37.828;2023-12-20T10:51:23;9.70;82.20
40636;DHT22;26642;55.766;37.828;2023-12-20T10:53:54;9.70;82.20
40636;DHT22;26642;55.766;37.828;2023-12-20T10:56:20;9.70;82.40
40636;DHT22;26642;55.766;37.828;2023-12-20T10:58:47;9.80;82.30
40636;DHT22;26642;55.766;37.828;2023-12-20T11:01:16;9.70;82.30
40636;DHT22;26642;55.766;37.828;2023-12-20T11:03:48;9.80;82.40
40636;DHT22;26642;55.766;37.828;2023-12-20T11:06:54;9.70;82.30
40636;DHT22;26642;55.766;37.828;2023-12-20T11:11:52;9.80;82.40
40636;DHT22;26642;55.766;37.828;2023-12-20T11:14:47;9.70;82.30
40636;DHT22;26642;55.766;37.828;2023-12-20T11:17:14;9.70;82.30
40636;DHT22;26642;55.766;37.828;2023-12-20T11:22:30;9.70;82.50
40636;DHT22;26642;55.766;37.828;2023-12-20T11:25:07;9.80;82.50
40636;DHT22;26642;55.766;37.828;2023-12-20T11:27:37;9.80;82.40
40636;DHT22;26642;55.766;37.828;2023-12-20T11:30:06;9.80;82.30
40636;DHT22;26642;55.766;37.828;2023-12-20T11:32:37;9.80;82.10
40636;DHT22;26642;55.766;37.828;2023-12-20T11:37:36;9.70;81.80
40636;DHT22;26642;55.766;37.828;2023-12-20T11:40:05;9.70;81.70
40636;DHT22;26642;55.766;37.828;2023-12-20T11:42:48;9.80;81.70
40636;DHT22;26642;55.766;37.828;2023-12-20T11:45:16;9.70;81.60
40636;DHT22;26642;55.766;37.828;2023-12-20T11:47:49;9.70;81.60
40636;DHT22;26642;55.766;37.828;2023-12-20T11:50:22;9.80;81.70
40636;DHT22;26642;55.766;37.828;2023-12-20T11:52:49;9.70;81.60
40636;DHT22;26642;55.766;37.828;2023-12-20T11:55:16;9.80;81.60
40636;DHT22;26642;55.766;37.828;2023-12-20T11:57:43;9.80;81.60
40636;DHT22;26642;55.766;37.828;2023-12-20T12:00:09;9.80;82.00
40636;DHT22;26642;55.766;37.828;2023-12-20T12:02:39;9.70;81.50
40636;DHT22;26642;55.766;37.828;2023-12-20T12:05:05;9.70;81.40
40636;DHT22;26642;55.766;37.828;2023-12-20T12:07:32;9.70;81.40
40636;DHT22;26642;55.766;37.828;2023-12-20T12:09:58;9.70;81.40
40636;DHT22;26642;55.766;37.828;2023-12-20T12:12:24;9.80;81.30
40636;DHT22;26642;55.766;37.828;2023-12-20T12:14:53;9.80;81.50
40636;DHT22;26642;55.766;37.828;2023-12-20T12:17:44;9.80;81.50
40636;DHT22;26642;55.766;37.828;2023-12-20T12:20:10;9.80;81.40
40636;DHT22;26642;55.766;37.828;2023-12-20T12:22:37;9.80;81.40
40636;DHT22;26642;55.766;37.828;2023-12-20T12:25:10;9.80;81.80
40636;DHT22;26642;55.766;37.828;2023-12-20T12:27:41;9.80;81.40
40636;DHT22;26642;55.766;37.828;2023-12-20T12:30:09;9.80;81.40
40636;DHT22;26642;55.766;37.828;2023-12-20T12:32:36;9.80;81.30
40636;DHT22;26642;55.766;37.828;2023-12-20T12:35:05;9.80;81.20
40636;DHT22;26642;55.766;37.828;2023-12-20T12:37:37;9.80;81.20
40636;DHT22;26642;55.766;37.828;2023-12-20T12:40:17;9.70;81.20
40636;DHT22;26642;55.766;37.828;2023-12-20T12:42:45;9.70;81.10
40636;DHT22;26642;55.766;37.828;2023-12-20T12:45:11;9.80;81.20
40636;DHT22;26642;55.766;37.828;2023-12-20T12:47:38;9.80;81.20
40636;DHT22;26642;55.766;37.828;2023-12-20T12:50:04;9.80;81.40
40636;DHT22;26642;55.766;37.828;2023-12-20T12:52:31;9.70;81.90
40636;DHT22;26642;55.766;37.828;2023-12-20T12:54:57;9.70;81.90
40636;DHT22;26642;55.766;37.828;2023-12-20T12:57:23;9.70;81.20
40636;DHT22;26642;55.766;37.828;2023-12-20T12:59:49;9.70;81.30
40636;DHT22;26642;55.766;37.828;2023-12-20T13:02:16;9.70;81.20
40636;DHT22;26642;55.766;37.828;2023-12-20T13:04:42;9.70;81.30
40636;DHT22;26642;55.766;37.828;2023-12-20T13:07:09;9.80;81.40
40636;DHT22;26642;55.766;37.828;2023-12-20T13:09:38;9.70;81.30
40636;DHT22;26642;55.766;37.828;2023-12-20T13:12:05;9.70;81.30
40636;DHT22;26642;55.766;37.828;2023-12-20T13:14:34;9.70;81.20
40636;DHT22;26642;55.766;37.828;2023-12-20T13:17:01;9.70;81.30
40636;DHT22;26642;55.766;37.828;2023-12-20T13:19:27;9.70;81.40
40636;DHT22;26642;55.766;37.828;2023-12-20T13:21:53;9.70;81.30
40636;DHT22;26642;55.766;37.828;2023-12-20T13:24:19;9.70;81.30
40636;DHT22;26642;55.766;37.828;2023-12-20T13:26:45;9.70;81.20
40636;DHT22;26642;55.766;37.828;2023-12-20T13:29:11;9.70;81.20
40636;DHT22;26642;55.766;37.828;2023-12-20T13:31:37;9.70;81.20
40636;DHT22;26642;55.766;37.828;2023-12-20T13:34:04;9.70;81.30
40636;DHT22;26642;55.766;37.828;2023-12-20T13:36:30;9.70;81.70
40636;DHT22;26642;55.766;37.828;2023-12-20T13:38:56;9.70;82.00
40636;DHT22;26642;55.766;37.828;2023-12-20T13:41:22;9.70;82.20
40636;DHT22;26642;55.766;37.828;2023-12-20T13:43:48;9.70;82.50
40636;DHT22;26642;55.766;37.828;2023-12-20T13:46:15;9.70;82.60
40636;DHT22;26642;55.766;37.828;2023-12-20T13:48:41;9.70;82.70
40636;DHT22;26642;55.766;37.828;2023-12-20T13:51:07;9.70;82.80
40636;DHT22;26642;55.766;37.828;2023-12-20T13:53:33;9.60;82.80
40636;DHT22;26642;55.766;37.828;2023-12-20T13:55:59;9.70;83.00
40636;DHT22;26642;55.766;37.828;2023-12-20T13:58:26;9.70;83.10
40636;DHT22;26642;55.766;37.828;2023-12-20T14:00:52;9.70;83.00
40636;DHT22;26642;55.766;37.828;2023-12-20T14:03:18;9.70;83.20
40636;DHT22;26642;55.766;37.828;2023-12-20T14:05:45;9.60;83.20
40636;DHT22;26642;55.766;37.828;2023-12-20T14:08:11;9.60;83.10
40636;DHT22;26642;55.766;37.828;2023-12-20T14:10:37;9.60;83.20
40636;DHT22;26642;55.766;37.828;2023-12-20T14:13:04;9.60;83.10
40636;DHT22;26642;55.766;37.828;2023-12-20T14:15:31;9.70;83.30
40636;DHT22;26642;55.766;37.828;2023-12-20T14:18:06;9.60;83.20
40636;DHT22;26642;55.766;37.828;2023-12-20T14:20:32;9.70;83.00
40636;DHT22;26642;55.766;37.828;2023-12-20T14:23:04;9.60;82.60
40636;DHT22;26642;55.766;37.828;2023-12-20T14:25:30;9.60;82.60
40636;DHT22;26642;55.766;37.828;2023-12-20T14:27:57;9.60;82.20
40636;DHT22;26642;55.766;37.828;2023-12-20T14:30:23;9.60;82.10
40636;DHT22;26642;55.766;37.828;2023-12-20T14:32:49;9.60;82.00
40636;DHT22;26642;55.766;37.828;2023-12-20T14:35:16;9.60;81.70
40636;DHT22;26642;55.766;37.828;2023-12-20T14:37:42;9.60;81.60
40636;DHT22;26642;55.766;37.828;2023-12-20T14:40:08;9.70;81.30
40636;DHT22;26642;55.766;37.828;2023-12-20T14:42:49;9.60;81.00
40636;DHT22;26642;55.766;37.828;2023-12-20T14:45:16;9.60;80.60
40636;DHT22;26642;55.766;37.828;2023-12-20T14:47:43;9.70;80.50
40636;DHT22;26642;55.766;37.828;2023-12-20T14:50:09;9.60;80.90
40636;DHT22;26642;55.766;37.828;2023-12-20T14:52:37;9.60;80.80
40636;DHT22;26642;55.766;37.828;2023-12-20T14:55:03;9.60;80.50
40636;DHT22;26642;55.766;37.828;2023-12-20T14:57:30;9.60;80.50
40636;DHT22;26642;55.766;37.828;2023-12-20T14:59:57;9.60;80.30
40636;DHT22;26642;55.766;37.828;2023-12-20T15:02:23;9.60;80.30
40636;DHT22;26642;55.766;37.828;2023-12-20T15:04:49;9.60;80.10
40636;DHT22;26642;55.766;37.828;2023-12-20T15:07:16;9.60;79.90
40636;DHT22;26642;55.766;37.828;2023-12-20T15:09:43;9.50;80.10
40636;DHT22;26642;55.766;37.828;2023-12-20T15:12:12;9.60;80.20
40636;DHT22;26642;55.766;37.828;2023-12-20T15:14:38;9.60;80.30
40636;DHT22;26642;55.766;37.828;2023-12-20T15:17:04;9.50;80.50
40636;DHT22;26642;55.766;37.828;2023-12-20T15:19:31;9.50;80.40
40636;DHT22;26642;55.766;37.828;2023-12-20T15:21:57;9.50;80.40
40636;DHT22;26642;55.766;37.828;2023-12-20T15:24:25;9.50;80.30
40636;DHT22;26642;55.766;37.828;2023-12-20T15:27:03;9.50;80.40
40636;DHT22;26642;55.766;37.828;2023-12-20T15:29:29;9.50;80.40
40636;DHT22;26642;55.766;37.828;2023-12-20T15:31:56;9.50;80.40
40636;DHT22;26642;55.766;37.828;2023-12-20T15:34:22;9.50;80.50
40636;DHT22;26642;55.766;37.828;2023-12-20T15:36:48;9.50;80.40